Crestview, Florida
Current Conditions -  °F | °C
As of 12:48 AM on Monday 24 Nov 2014 (Local Time) from KCEW Reporting Station
Scattered Clouds Scattered Clouds  
Wind Chill: 70°   Ceiling: Unl
Heat Index: 70°   Visibility: 10mi
Dew Point: 69°   Wind: 9mph
Humidity: 97%   Direction: 180°S
Pressure: 29.79"   Gusts: NA
Location:  30.76°N, 86.57°W
Report Text: KCEW 240648Z AUTO 18008KT 10SM FEW008 SCT015 SCT020 21/21 A2979 RMK AO2 SLP085 T02110206 $
Loading
Personal Weather Stations






























Interactive Weather Map New forecast layout! Learn more

10-Day Weather Forecast

Advertisements
Track Severe Weather on mobile